sensor_id;sensor_type;location;lat;lon;timestamp;pressure;altitude;pressure_sealevel;temperature;humidity
44441;BME280;30146;52.268;20.944;2023-04-07T00:00:12;100256.61;;;5.15;71.19
44441;BME280;30146;52.268;20.944;2023-04-07T00:02:40;100255.79;;;5.16;71.23
44441;BME280;30146;52.268;20.944;2023-04-07T00:05:11;100259.20;;;5.18;71.22
44441;BME280;30146;52.268;20.944;2023-04-07T00:07:39;100253.96;;;5.18;71.22
44441;BME280;30146;52.268;20.944;2023-04-07T00:10:23;100251.79;;;5.21;71.40
44441;BME280;30146;52.268;20.944;2023-04-07T00:12:51;100249.42;;;5.22;71.45
44441;BME280;30146;52.268;20.944;2023-04-07T00:15:20;100253.83;;;5.22;71.24
44441;BME280;30146;52.268;20.944;2023-04-07T00:17:48;100250.95;;;5.22;71.11
44441;BME280;30146;52.268;20.944;2023-04-07T00:20:17;100247.05;;;5.23;71.35
44441;BME280;30146;52.268;20.944;2023-04-07T00:22:45;100245.71;;;5.24;71.47
44441;BME280;30146;52.268;20.944;2023-04-07T00:25:13;100250.64;;;5.25;71.48
44441;BME280;30146;52.268;20.944;2023-04-07T00:27:41;100248.45;;;5.26;71.57
44441;BME280;30146;52.268;20.944;2023-04-07T00:30:10;100245.24;;;5.28;71.70
44441;BME280;30146;52.268;20.944;2023-04-07T00:32:39;100241.86;;;5.29;71.69
44441;BME280;30146;52.268;20.944;2023-04-07T00:35:09;100246.12;;;5.30;71.59
44441;BME280;30146;52.268;20.944;2023-04-07T00:37:37;100237.98;;;5.31;71.55
44441;BME280;30146;52.268;20.944;2023-04-07T00:40:08;100243.59;;;5.33;71.63
44441;BME280;30146;52.268;20.944;2023-04-07T00:42:36;100243.61;;;5.34;71.74
44441;BME280;30146;52.268;20.944;2023-04-07T00:45:08;100241.42;;;5.36;71.71
44441;BME280;30146;52.268;20.944;2023-04-07T00:47:37;100236.02;;;5.37;71.79
44441;BME280;30146;52.268;20.944;2023-04-07T00:50:07;100237.89;;;5.38;71.85
44441;BME280;30146;52.268;20.944;2023-04-07T00:52:36;100235.02;;;5.39;71.99
44441;BME280;30146;52.268;20.944;2023-04-07T00:55:06;100234.36;;;5.41;71.83
44441;BME280;30146;52.268;20.944;2023-04-07T00:57:34;100231.86;;;5.44;71.95
44441;BME280;30146;52.268;20.944;2023-04-07T01:00:05;100237.30;;;5.46;71.74
44441;BME280;30146;52.268;20.944;2023-04-07T01:02:38;100227.48;;;5.47;71.93
44441;BME280;30146;52.268;20.944;2023-04-07T01:05:14;100229.34;;;5.48;72.08
44441;BME280;30146;52.268;20.944;2023-04-07T01:07:54;100222.41;;;5.50;71.89
44441;BME280;30146;52.268;20.944;2023-04-07T01:10:30;100225.49;;;5.53;71.99
44441;BME280;30146;52.268;20.944;2023-04-07T01:13:07;100225.52;;;5.56;71.97
44441;BME280;30146;52.268;20.944;2023-04-07T01:15:38;100224.34;;;5.57;72.05
44441;BME280;30146;52.268;20.944;2023-04-07T01:18:14;100221.48;;;5.59;72.05
44441;BME280;30146;52.268;20.944;2023-04-07T01:20:48;100222.69;;;5.62;72.07
44441;BME280;30146;52.268;20.944;2023-04-07T01:23:24;100223.21;;;5.64;71.97
44441;BME280;30146;52.268;20.944;2023-04-07T01:26:10;100220.52;;;5.66;72.22
44441;BME280;30146;52.268;20.944;2023-04-07T01:29:03;100222.07;;;5.69;72.17
44441;BME280;30146;52.268;20.944;2023-04-07T01:31:37;100220.72;;;5.70;71.98
44441;BME280;30146;52.268;20.944;2023-04-07T01:34:09;100220.22;;;5.72;72.22
44441;BME280;30146;52.268;20.944;2023-04-07T01:36:39;100219.05;;;5.73;72.06
44441;BME280;30146;52.268;20.944;2023-04-07T01:39:09;100218.55;;;5.74;72.01
44441;BME280;30146;52.268;20.944;2023-04-07T01:41:39;100213.80;;;5.74;72.03
44441;BME280;30146;52.268;20.944;2023-04-07T01:44:09;100211.43;;;5.75;71.99
44441;BME280;30146;52.268;20.944;2023-04-07T01:46:38;100211.80;;;5.76;72.19
44441;BME280;30146;52.268;20.944;2023-04-07T01:49:07;100214.69;;;5.78;72.06
44441;BME280;30146;52.268;20.944;2023-04-07T01:51:35;100212.15;;;5.79;72.13
44441;BME280;30146;52.268;20.944;2023-04-07T01:54:04;100206.05;;;5.81;72.15
44441;BME280;30146;52.268;20.944;2023-04-07T01:56:34;100208.26;;;5.82;72.24
44441;BME280;30146;52.268;20.944;2023-04-07T01:59:05;100209.30;;;5.83;72.25
44441;BME280;30146;52.268;20.944;2023-04-07T02:01:34;100207.59;;;5.84;72.39
44441;BME280;30146;52.268;20.944;2023-04-07T02:04:10;100210.67;;;5.86;72.40
44441;BME280;30146;52.268;20.944;2023-04-07T02:06:43;100208.14;;;5.87;72.16
44441;BME280;30146;52.268;20.944;2023-04-07T02:09:18;100207.30;;;5.89;72.19
44441;BME280;30146;52.268;20.944;2023-04-07T02:11:49;100208.67;;;5.90;72.30
44441;BME280;30146;52.268;20.944;2023-04-07T02:14:20;100210.88;;;5.92;72.42
44441;BME280;30146;52.268;20.944;2023-04-07T02:17:03;100214.63;;;5.93;72.48
44441;BME280;30146;52.268;20.944;2023-04-07T02:19:32;100212.30;;;5.95;72.54
44441;BME280;30146;52.268;20.944;2023-04-07T02:22:03;100211.80;;;5.97;72.47
44441;BME280;30146;52.268;20.944;2023-04-07T02:24:32;100210.98;;;5.99;72.53
44441;BME280;30146;52.268;20.944;2023-04-07T02:27:00;100211.15;;;6.01;72.50
44441;BME280;30146;52.268;20.944;2023-04-07T02:29:29;100212.69;;;6.03;72.67
44441;BME280;30146;52.268;20.944;2023-04-07T02:31:57;100214.23;;;6.05;72.58
44441;BME280;30146;52.268;20.944;2023-04-07T02:34:25;100207.80;;;6.07;72.68
44441;BME280;30146;52.268;20.944;2023-04-07T02:36:54;100205.94;;;6.08;72.51
44441;BME280;30146;52.268;20.944;2023-04-07T02:39:22;100202.88;;;6.09;72.60
44441;BME280;30146;52.268;20.944;2023-04-07T02:41:50;100199.51;;;6.11;72.63
44441;BME280;30146;52.268;20.944;2023-04-07T02:44:19;100202.58;;;6.12;72.61
44441;BME280;30146;52.268;20.944;2023-04-07T02:46:47;100198.48;;;6.13;72.73
44441;BME280;30146;52.268;20.944;2023-04-07T02:49:15;100196.98;;;6.14;72.77
44441;BME280;30146;52.268;20.944;2023-04-07T02:51:44;100199.37;;;6.16;72.84
44441;BME280;30146;52.268;20.944;2023-04-07T02:54:13;100199.71;;;6.18;72.75
44441;BME280;30146;52.268;20.944;2023-04-07T02:56:42;100202.44;;;6.16;72.76
44441;BME280;30146;52.268;20.944;2023-04-07T02:59:10;100204.14;;;6.18;72.98
44441;BME280;30146;52.268;20.944;2023-04-07T03:01:42;100201.09;;;6.18;72.91
44441;BME280;30146;52.268;20.944;2023-04-07T03:04:10;100208.90;;;6.20;72.90
44441;BME280;30146;52.268;20.944;2023-04-07T03:06:39;100207.20;;;6.20;72.87
44441;BME280;30146;52.268;20.944;2023-04-07T03:09:11;100207.38;;;6.22;72.82
44441;BME280;30146;52.268;20.944;2023-04-07T03:11:40;100205.03;;;6.24;73.17
44441;BME280;30146;52.268;20.944;2023-04-07T03:14:08;100205.73;;;6.27;73.05
44441;BME280;30146;52.268;20.944;2023-04-07T03:16:42;100209.80;;;6.28;72.99
44441;BME280;30146;52.268;20.944;2023-04-07T03:19:12;100211.85;;;6.30;73.02
44441;BME280;30146;52.268;20.944;2023-04-07T03:21:47;100213.05;;;6.33;73.15
44441;BME280;30146;52.268;20.944;2023-04-07T03:24:15;100213.73;;;6.34;73.12
44441;BME280;30146;52.268;20.944;2023-04-07T03:26:46;100210.52;;;6.35;73.08
44441;BME280;30146;52.268;20.944;2023-04-07T03:29:25;100211.89;;;6.37;73.08
44441;BME280;30146;52.268;20.944;2023-04-07T03:31:53;100209.52;;;6.39;73.16
44441;BME280;30146;52.268;20.944;2023-04-07T03:34:24;100212.41;;;6.41;73.07
44441;BME280;30146;52.268;20.944;2023-04-07T03:36:52;100211.91;;;6.41;73.09
44441;BME280;30146;52.268;20.944;2023-04-07T03:39:21;100209.04;;;6.43;73.33
44441;BME280;30146;52.268;20.944;2023-04-07T03:41:50;100209.21;;;6.44;73.22
44441;BME280;30146;52.268;20.944;2023-04-07T03:44:19;100212.61;;;6.47;73.20
44441;BME280;30146;52.268;20.944;2023-04-07T03:46:49;100210.42;;;6.49;73.37
44441;BME280;30146;52.268;20.944;2023-04-07T03:49:17;100209.59;;;6.52;73.39
44441;BME280;30146;52.268;20.944;2023-04-07T03:51:45;100211.30;;;6.55;73.39
44441;BME280;30146;52.268;20.944;2023-04-07T03:54:15;100210.97;;;6.57;73.30
44441;BME280;30146;52.268;20.944;2023-04-07T03:56:44;100210.64;;;6.59;73.30
44441;BME280;30146;52.268;20.944;2023-04-07T03:59:13;100211.66;;;6.60;73.16
44441;BME280;30146;52.268;20.944;2023-04-07T04:01:51;100209.96;;;6.61;73.22
44441;BME280;30146;52.268;20.944;2023-04-07T04:04:20;100210.30;;;6.62;73.25
44441;BME280;30146;52.268;20.944;2023-04-07T04:06:49;100207.09;;;6.63;73.16
44441;BME280;30146;52.268;20.944;2023-04-07T04:09:22;100209.30;;;6.64;73.19
44441;BME280;30146;52.268;20.944;2023-04-07T04:11:51;100211.68;;;6.64;73.22
44441;BME280;30146;52.268;20.944;2023-04-07T04:14:19;100210.51;;;6.65;73.32
44441;BME280;30146;52.268;20.944;2023-04-07T04:16:53;100209.83;;;6.67;73.39
44441;BME280;30146;52.268;20.944;2023-04-07T04:19:32;100212.72;;;6.69;73.34
44441;BME280;30146;52.268;20.944;2023-04-07T04:22:04;100215.61;;;6.69;73.35
44441;BME280;30146;52.268;20.944;2023-04-07T04:24:35;100215.27;;;6.69;73.23
44441;BME280;30146;52.268;20.944;2023-04-07T04:27:04;100221.05;;;6.70;73.29
44441;BME280;30146;52.268;20.944;2023-04-07T04:29:32;100217.83;;;6.70;73.42
44441;BME280;30146;52.268;20.944;2023-04-07T04:32:01;100222.58;;;6.72;73.29
44441;BME280;30146;52.268;20.944;2023-04-07T04:34:30;100225.30;;;6.73;73.48
44441;BME280;30146;52.268;20.944;2023-04-07T04:37:02;100230.74;;;6.74;73.43
44441;BME280;30146;52.268;20.944;2023-04-07T04:39:30;100228.21;;;6.75;73.39
44441;BME280;30146;52.268;20.944;2023-04-07T04:41:59;100222.27;;;6.76;73.50
44441;BME280;30146;52.268;20.944;2023-04-07T04:44:33;100227.71;;;6.78;73.53
44441;BME280;30146;52.268;20.944;2023-04-07T04:47:01;100232.14;;;6.80;73.56
44441;BME280;30146;52.268;20.944;2023-04-07T04:49:31;100230.95;;;6.79;73.36
44441;BME280;30146;52.268;20.944;2023-04-07T04:52:01;100230.42;;;6.79;73.41
44441;BME280;30146;52.268;20.944;2023-04-07T04:54:30;100229.23;;;6.79;73.38
44441;BME280;30146;52.268;20.944;2023-04-07T04:57:02;100229.75;;;6.79;73.43
44441;BME280;30146;52.268;20.944;2023-04-07T04:59:31;100232.30;;;6.79;73.45
44441;BME280;30146;52.268;20.944;2023-04-07T05:02:03;100230.27;;;6.81;73.58
44441;BME280;30146;52.268;20.944;2023-04-07T05:04:32;100232.32;;;6.82;73.61
44441;BME280;30146;52.268;20.944;2023-04-07T05:07:21;100230.78;;;6.84;73.56
44441;BME280;30146;52.268;20.944;2023-04-07T05:09:49;100230.46;;;6.86;73.66
44441;BME280;30146;52.268;20.944;2023-04-07T05:12:18;100229.45;;;6.86;73.60
44441;BME280;30146;52.268;20.944;2023-04-07T05:14:49;100231.15;;;6.86;73.72
44441;BME280;30146;52.268;20.944;2023-04-07T05:17:18;100229.28;;;6.89;73.68
44441;BME280;30146;52.268;20.944;2023-04-07T05:19:47;100228.77;;;6.90;73.74
44441;BME280;30146;52.268;20.944;2023-04-07T05:22:24;100231.16;;;6.94;73.68
44441;BME280;30146;52.268;20.944;2023-04-07T05:25:01;100231.85;;;6.94;73.73
44441;BME280;30146;52.268;20.944;2023-04-07T05:27:29;100230.31;;;6.94;73.79
44441;BME280;30146;52.268;20.944;2023-04-07T05:30:01;100232.38;;;6.97;73.82
44441;BME280;30146;52.268;20.944;2023-04-07T05:32:32;100235.77;;;6.98;73.73
44441;BME280;30146;52.268;20.944;2023-04-07T05:35:06;100234.75;;;6.98;73.72
44441;BME280;30146;52.268;20.944;2023-04-07T05:37:36;100238.83;;;6.98;73.82
44441;BME280;30146;52.268;20.944;2023-04-07T05:40:07;100237.48;;;7.00;73.85
44441;BME280;30146;52.268;20.944;2023-04-07T05:42:35;100238.16;;;7.02;73.97
44441;BME280;30146;52.268;20.944;2023-04-07T05:45:05;100232.56;;;7.06;74.06
44441;BME280;30146;52.268;20.944;2023-04-07T05:47:34;100236.83;;;7.09;73.99
44441;BME280;30146;52.268;20.944;2023-04-07T05:50:04;100236.33;;;7.14;73.93
44441;BME280;30146;52.268;20.944;2023-04-07T05:52:33;100235.15;;;7.19;73.96
44441;BME280;30146;52.268;20.944;2023-04-07T05:55:09;100233.65;;;7.24;73.91
44441;BME280;30146;52.268;20.944;2023-04-07T05:57:38;100237.23;;;7.30;73.96
44441;BME280;30146;52.268;20.944;2023-04-07T06:00:09;100238.08;;;7.34;73.92
44441;BME280;30146;52.268;20.944;2023-04-07T06:02:41;100237.58;;;7.38;73.89
44441;BME280;30146;52.268;20.944;2023-04-07T06:05:14;100236.90;;;7.43;73.83
44441;BME280;30146;52.268;20.944;2023-04-07T06:07:42;100236.23;;;7.46;73.86
44441;BME280;30146;52.268;20.944;2023-04-07T06:10:11;100237.09;;;7.50;73.69
44441;BME280;30146;52.268;20.944;2023-04-07T06:12:39;100235.55;;;7.51;73.69
44441;BME280;30146;52.268;20.944;2023-04-07T06:15:08;100237.26;;;7.52;73.51
44441;BME280;30146;52.268;20.944;2023-04-07T06:17:38;100233.52;;;7.53;73.48
44441;BME280;30146;52.268;20.944;2023-04-07T06:20:09;100235.73;;;7.55;73.57
44441;BME280;30146;52.268;20.944;2023-04-07T06:22:38;100234.70;;;7.56;73.64
44441;BME280;30146;52.268;20.944;2023-04-07T06:25:09;100230.98;;;7.57;73.59
44441;BME280;30146;52.268;20.944;2023-04-07T06:27:37;100232.16;;;7.58;73.60
44441;BME280;30146;52.268;20.944;2023-04-07T06:30:09;100234.55;;;7.60;73.70
44441;BME280;30146;52.268;20.944;2023-04-07T06:32:38;100231.66;;;7.63;73.63
44441;BME280;30146;52.268;20.944;2023-04-07T06:35:07;100229.96;;;7.66;73.87
44441;BME280;30146;52.268;20.944;2023-04-07T06:37:36;100230.13;;;7.72;73.98
44441;BME280;30146;52.268;20.944;2023-04-07T06:40:08;100229.63;;;7.79;73.93
44441;BME280;30146;52.268;20.944;2023-04-07T06:42:36;100226.56;;;7.86;74.02
44441;BME280;30146;52.268;20.944;2023-04-07T06:45:11;100222.81;;;7.93;73.95
44441;BME280;30146;52.268;20.944;2023-04-07T06:47:39;100221.63;;;7.99;73.96
44441;BME280;30146;52.268;20.944;2023-04-07T06:50:09;100228.08;;;8.05;73.89
44441;BME280;30146;52.268;20.944;2023-04-07T06:52:37;100224.16;;;8.10;73.89
44441;BME280;30146;52.268;20.944;2023-04-07T06:55:08;100228.06;;;8.16;73.85
44441;BME280;30146;52.268;20.944;2023-04-07T06:57:36;100225.67;;;8.22;73.79
44441;BME280;30146;52.268;20.944;2023-04-07T07:00:07;100228.05;;;8.27;73.75
44441;BME280;30146;52.268;20.944;2023-04-07T07:05:48;100225.82;;;8.39;73.66
44441;BME280;30146;52.268;20.944;2023-04-07T07:08:27;100227.37;;;8.44;73.72
44441;BME280;30146;52.268;20.944;2023-04-07T07:10:56;100227.70;;;8.49;73.71
44441;BME280;30146;52.268;20.944;2023-04-07T07:13:27;100227.68;;;8.51;73.56
44441;BME280;30146;52.268;20.944;2023-04-07T07:15:56;100224.43;;;8.52;73.39
44441;BME280;30146;52.268;20.944;2023-04-07T07:18:27;100223.09;;;8.53;73.31
44441;BME280;30146;52.268;20.944;2023-04-07T07:20:58;100219.16;;;8.55;73.43
44441;BME280;30146;52.268;20.944;2023-04-07T07:23:26;100218.30;;;8.56;73.17
44441;BME280;30146;52.268;20.944;2023-04-07T07:25:54;100223.58;;;8.58;73.43
44441;BME280;30146;52.268;20.944;2023-04-07T07:28:23;100230.72;;;8.63;73.36
44441;BME280;30146;52.268;20.944;2023-04-07T07:30:51;100238.88;;;8.68;73.38
44441;BME280;30146;52.268;20.944;2023-04-07T07:33:19;100236.30;;;8.73;73.47
44441;BME280;30146;52.268;20.944;2023-04-07T07:35:49;100233.20;;;8.82;73.50
44441;BME280;30146;52.268;20.944;2023-04-07T07:38:18;100237.60;;;8.91;73.58
44441;BME280;30146;52.268;20.944;2023-04-07T07:40:47;100239.43;;;8.98;73.45
44441;BME280;30146;52.268;20.944;2023-04-07T07:43:15;100240.77;;;9.05;73.50
44441;BME280;30146;52.268;20.944;2023-04-07T07:45:44;100241.94;;;9.10;73.53
44441;BME280;30146;52.268;20.944;2023-04-07T07:48:13;100244.29;;;9.16;73.36
44441;BME280;30146;52.268;20.944;2023-04-07T07:50:41;100244.78;;;9.20;73.07
44441;BME280;30146;52.268;20.944;2023-04-07T07:53:11;100245.63;;;9.24;73.14
44441;BME280;30146;52.268;20.944;2023-04-07T07:55:39;100244.57;;;9.29;73.05
44441;BME280;30146;52.268;20.944;2023-04-07T07:58:07;100246.95;;;9.30;72.97
44441;BME280;30146;52.268;20.944;2023-04-07T08:00:36;100245.77;;;9.29;72.79
44441;BME280;30146;52.268;20.944;2023-04-07T08:03:07;100251.05;;;9.29;72.99
44441;BME280;30146;52.268;20.944;2023-04-07T08:05:35;100251.90;;;9.30;72.87
44441;BME280;30146;52.268;20.944;2023-04-07T08:08:04;100255.16;;;9.27;72.63
44441;BME280;30146;52.268;20.944;2023-04-07T08:10:32;100252.44;;;9.25;72.58
44441;BME280;30146;52.268;20.944;2023-04-07T08:13:01;100251.60;;;9.22;72.68
44441;BME280;30146;52.268;20.944;2023-04-07T08:15:29;100253.98;;;9.20;72.73
44441;BME280;30146;52.268;20.944;2023-04-07T08:17:57;100252.80;;;9.19;72.73
44441;BME280;30146;52.268;20.944;2023-04-07T08:20:27;100252.80;;;9.21;72.77
44441;BME280;30146;52.268;20.944;2023-04-07T08:22:55;100253.64;;;9.24;72.83
44441;BME280;30146;52.268;20.944;2023-04-07T08:25:24;100251.56;;;9.30;73.11
44441;BME280;30146;52.268;20.944;2023-04-07T08:27:52;100246.89;;;9.39;73.11
44441;BME280;30146;52.268;20.944;2023-04-07T08:30:22;100244.44;;;9.50;73.30
44441;BME280;30146;52.268;20.944;2023-04-07T08:32:51;100250.19;;;9.58;73.20
44441;BME280;30146;52.268;20.944;2023-04-07T08:35:19;100252.36;;;9.63;73.12
44441;BME280;30146;52.268;20.944;2023-04-07T08:37:49;100249.77;;;9.68;72.95
44441;BME280;30146;52.268;20.944;2023-04-07T08:40:17;100249.77;;;9.68;72.89
44441;BME280;30146;52.268;20.944;2023-04-07T08:42:47;100248.55;;;9.73;72.86
44441;BME280;30146;52.268;20.944;2023-04-07T08:45:16;100241.82;;;9.81;72.93
44441;BME280;30146;52.268;20.944;2023-04-07T08:47:46;100238.52;;;9.88;72.82
44441;BME280;30146;52.268;20.944;2023-04-07T08:53:59;100239.64;;;9.97;72.60
44441;BME280;30146;52.268;20.944;2023-04-07T09:07:14;100243.42;;;10.64;71.84
44441;BME280;30146;52.268;20.944;2023-04-07T09:09:47;100243.92;;;10.82;71.48
44441;BME280;30146;52.268;20.944;2023-04-07T09:12:19;100243.42;;;10.80;71.13
44441;BME280;30146;52.268;20.944;2023-04-07T09:14:50;100243.26;;;10.81;71.30
44441;BME280;30146;52.268;20.944;2023-04-07T09:17:23;100241.88;;;10.82;71.42
44441;BME280;30146;52.268;20.944;2023-04-07T09:19:56;100239.30;;;10.84;71.37
44441;BME280;30146;52.268;20.944;2023-04-07T09:22:39;100236.67;;;10.87;71.44
44441;BME280;30146;52.268;20.944;2023-04-07T09:25:14;100235.80;;;10.90;71.45
44441;BME280;30146;52.268;20.944;2023-04-07T09:28:02;100235.73;;;10.94;71.48
44441;BME280;30146;52.268;20.944;2023-04-07T09:30:33;100233.77;;;11.02;71.71
44441;BME280;30146;52.268;20.944;2023-04-07T09:33:05;100231.30;;;11.07;71.71
44441;BME280;30146;52.268;20.944;2023-04-07T09:35:51;100230.05;;;11.11;71.49
44441;BME280;30146;52.268;20.944;2023-04-07T09:38:33;100232.64;;;11.09;71.03
44441;BME280;30146;52.268;20.944;2023-04-07T09:41:08;100231.29;;;11.07;71.06
44441;BME280;30146;52.268;20.944;2023-04-07T09:43:41;100232.70;;;11.04;70.93
44441;BME280;30146;52.268;20.944;2023-04-07T09:46:14;100231.36;;;11.03;70.97
44441;BME280;30146;52.268;20.944;2023-04-07T09:48:46;100234.79;;;11.02;71.06
44441;BME280;30146;52.268;20.944;2023-04-07T09:51:17;100238.20;;;11.03;71.04
44441;BME280;30146;52.268;20.944;2023-04-07T09:53:50;100238.36;;;11.03;71.17
44441;BME280;30146;52.268;20.944;2023-04-07T09:56:22;100236.30;;;11.03;71.05
44441;BME280;30146;52.268;20.944;2023-04-07T09:58:53;100236.64;;;11.04;71.28
44441;BME280;30146;52.268;20.944;2023-04-07T10:01:25;100237.27;;;11.08;71.41
44441;BME280;30146;52.268;20.944;2023-04-07T10:03:56;100236.20;;;11.11;71.48
44441;BME280;30146;52.268;20.944;2023-04-07T10:06:28;100237.17;;;11.15;71.48
44441;BME280;30146;52.268;20.944;2023-04-07T10:08:59;100242.27;;;11.18;71.46
44441;BME280;30146;52.268;20.944;2023-04-07T10:11:31;100243.07;;;11.22;71.56
44441;BME280;30146;52.268;20.944;2023-04-07T10:14:02;100242.67;;;11.25;71.54
44441;BME280;30146;52.268;20.944;2023-04-07T10:16:34;100243.63;;;11.31;71.60
44441;BME280;30146;52.268;20.944;2023-04-07T10:19:06;100240.57;;;11.42;71.64
44441;BME280;30146;52.268;20.944;2023-04-07T10:21:40;100241.27;;;11.52;71.80
44441;BME280;30146;52.268;20.944;2023-04-07T10:24:22;100242.90;;;11.58;71.66
44441;BME280;30146;52.268;20.944;2023-04-07T10:27:00;100243.02;;;11.62;71.49
44441;BME280;30146;52.268;20.944;2023-04-07T10:29:45;100246.58;;;11.64;71.24
44441;BME280;30146;52.268;20.944;2023-04-07T10:32:21;100250.65;;;11.66;71.17
44441;BME280;30146;52.268;20.944;2023-04-07T10:34:59;100252.02;;;11.67;71.11
44441;BME280;30146;52.268;20.944;2023-04-07T10:37:31;100253.19;;;11.68;71.05
44441;BME280;30146;52.268;20.944;2023-04-07T10:40:29;100256.98;;;11.66;71.03
44441;BME280;30146;52.268;20.944;2023-04-07T10:43:00;100254.23;;;11.67;71.04
44441;BME280;30146;52.268;20.944;2023-04-07T10:45:55;100256.42;;;11.69;71.14
44441;BME280;30146;52.268;20.944;2023-04-07T10:48:28;100257.56;;;11.72;71.20
44441;BME280;30146;52.268;20.944;2023-04-07T10:51:15;100260.63;;;11.74;71.26
44441;BME280;30146;52.268;20.944;2023-04-07T10:54:19;100259.88;;;11.78;71.17
44441;BME280;30146;52.268;20.944;2023-04-07T10:57:08;100256.05;;;11.82;71.22
44441;BME280;30146;52.268;20.944;2023-04-07T11:02:51;100261.63;;;11.86;71.17
44441;BME280;30146;52.268;20.944;2023-04-07T11:05:23;100262.51;;;11.85;70.84
44441;BME280;30146;52.268;20.944;2023-04-07T11:07:55;100260.80;;;11.85;70.70
44441;BME280;30146;52.268;20.944;2023-04-07T11:10:28;100262.66;;;11.86;70.86
44441;BME280;30146;52.268;20.944;2023-04-07T11:13:00;100265.33;;;11.92;71.06
44441;BME280;30146;52.268;20.944;2023-04-07T11:15:33;100262.45;;;12.01;71.13
44441;BME280;30146;52.268;20.944;2023-04-07T11:18:10;100260.92;;;12.11;71.26
44441;BME280;30146;52.268;20.944;2023-04-07T11:20:58;100261.06;;;12.22;71.28
44441;BME280;30146;52.268;20.944;2023-04-07T11:23:36;100258.95;;;12.34;71.12
44441;BME280;30146;52.268;20.944;2023-04-07T11:26:12;100257.41;;;12.44;71.01
44441;BME280;30146;52.268;20.944;2023-04-07T11:28:47;100258.23;;;12.56;71.05
44441;BME280;30146;52.268;20.944;2023-04-07T11:31:25;100261.12;;;12.66;70.93
44441;BME280;30146;52.268;20.944;2023-04-07T11:33:58;100255.86;;;12.72;70.63
44441;BME280;30146;52.268;20.944;2023-04-07T11:36:31;100260.11;;;12.73;70.28
44441;BME280;30146;52.268;20.944;2023-04-07T11:39:03;100258.94;;;12.72;70.28
44441;BME280;30146;52.268;20.944;2023-04-07T11:41:46;100260.52;;;12.71;70.07
44441;BME280;30146;52.268;20.944;2023-04-07T11:44:18;100258.54;;;12.66;69.96
44441;BME280;30146;52.268;20.944;2023-04-07T11:46:58;100260.90;;;12.60;69.87
44441;BME280;30146;52.268;20.944;2023-04-07T11:49:30;100264.09;;;12.54;69.90
44441;BME280;30146;52.268;20.944;2023-04-07T11:52:03;100261.19;;;12.45;69.73
44441;BME280;30146;52.268;20.944;2023-04-07T11:54:43;100268.21;;;12.35;69.81
44441;BME280;30146;52.268;20.944;2023-04-07T11:57:22;100266.48;;;12.26;69.87
44441;BME280;30146;52.268;20.944;2023-04-07T12:00:06;100266.95;;;12.19;70.04
44441;BME280;30146;52.268;20.944;2023-04-07T12:02:37;100270.64;;;12.13;70.20
44441;BME280;30146;52.268;20.944;2023-04-07T12:05:09;100271.80;;;12.06;70.30
44441;BME280;30146;52.268;20.944;2023-04-07T12:07:50;100274.77;;;12.01;70.54
44441;BME280;30146;52.268;20.944;2023-04-07T12:10:23;100275.70;;;11.98;70.66
44441;BME280;30146;52.268;20.944;2023-04-07T12:12:55;100280.59;;;11.92;70.65
44441;BME280;30146;52.268;20.944;2023-04-07T12:15:28;100291.44;;;11.86;70.78
44441;BME280;30146;52.268;20.944;2023-04-07T12:17:59;100289.35;;;11.77;70.65
44441;BME280;30146;52.268;20.944;2023-04-07T12:20:32;100290.88;;;11.67;70.87
44441;BME280;30146;52.268;20.944;2023-04-07T12:23:06;100291.08;;;11.64;71.23
44441;BME280;30146;52.268;20.944;2023-04-07T12:25:37;100293.67;;;11.63;71.47
44441;BME280;30146;52.268;20.944;2023-04-07T12:28:07;100293.17;;;11.62;71.75
44441;BME280;30146;52.268;20.944;2023-04-07T12:30:38;100294.86;;;11.63;71.92
44441;BME280;30146;52.268;20.944;2023-04-07T12:33:09;100295.05;;;11.63;71.87
44441;BME280;30146;52.268;20.944;2023-04-07T12:35:40;100298.77;;;11.65;72.03
44441;BME280;30146;52.268;20.944;2023-04-07T12:38:11;100293.59;;;11.69;72.32
44441;BME280;30146;52.268;20.944;2023-04-07T12:44:18;100291.67;;;11.82;72.49
44441;BME280;30146;52.268;20.944;2023-04-07T12:46:49;100294.50;;;11.89;72.64
44441;BME280;30146;52.268;20.944;2023-04-07T12:49:20;100293.42;;;11.92;72.44
44441;BME280;30146;52.268;20.944;2023-04-07T12:51:52;100293.56;;;11.95;72.37
44441;BME280;30146;52.268;20.944;2023-04-07T12:54:23;100296.61;;;11.98;72.22
44441;BME280;30146;52.268;20.944;2023-04-07T12:56:54;100295.77;;;11.98;72.02
44441;BME280;30146;52.268;20.944;2023-04-07T12:59:27;100297.66;;;11.96;72.00
44441;BME280;30146;52.268;20.944;2023-04-07T13:01:59;100299.92;;;11.93;71.92
44441;BME280;30146;52.268;20.944;2023-04-07T13:04:31;100306.30;;;11.90;71.86
44441;BME280;30146;52.268;20.944;2023-04-07T13:07:02;100307.91;;;11.85;71.69
44441;BME280;30146;52.268;20.944;2023-04-07T13:09:33;100311.41;;;11.80;71.75
44441;BME280;30146;52.268;20.944;2023-04-07T13:12:04;100317.48;;;11.74;71.69
44441;BME280;30146;52.268;20.944;2023-04-07T13:14:35;100321.48;;;11.70;71.63
44441;BME280;30146;52.268;20.944;2023-04-07T13:17:28;100325.17;;;11.63;71.39
44441;BME280;30146;52.268;20.944;2023-04-07T13:19:59;100329.73;;;11.56;71.17
44441;BME280;30146;52.268;20.944;2023-04-07T13:22:30;100333.91;;;11.50;70.96
44441;BME280;30146;52.268;20.944;2023-04-07T13:25:05;100334.79;;;11.48;70.59
44441;BME280;30146;52.268;20.944;2023-04-07T13:27:36;100330.36;;;11.46;70.73
44441;BME280;30146;52.268;20.944;2023-04-07T13:30:09;100333.12;;;11.45;70.60
44441;BME280;30146;52.268;20.944;2023-04-07T13:32:40;100334.32;;;11.45;70.41
44441;BME280;30146;52.268;20.944;2023-04-07T13:35:11;100337.08;;;11.43;70.28